createdAt,value
2022-11-29T00:00:51.099Z,64.94
2022-11-29T00:01:51.188Z,65.25
2022-11-29T00:02:51.295Z,69.86
2022-11-29T00:03:51.113Z,68.48
2022-11-29T00:04:51.229Z,60.75
2022-11-29T00:05:51.132Z,61.51
2022-11-29T00:06:51.161Z,61.31
2022-11-29T00:07:51.176Z,58.23
2022-11-29T00:08:51.013Z,68.60
2022-11-29T00:09:51.064Z,57.99
2022-11-29T00:10:50.986Z,68.82
2022-11-29T00:11:51.008Z,69.03
2022-11-29T00:12:51.048Z,69.17
2022-11-29T00:13:51.173Z,72.04
2022-11-29T00:14:50.997Z,65.45
2022-11-29T00:15:50.971Z,67.37
2022-11-29T00:16:51.004Z,67.15
2022-11-29T00:17:50.989Z,62.36
2022-11-29T00:18:50.974Z,72.21
2022-11-29T00:19:50.893Z,66.93
2022-11-29T00:20:50.849Z,66.69
2022-11-29T00:21:50.840Z,69.80
2022-11-29T00:22:50.844Z,72.06
2022-11-29T00:23:52.006Z,74.09
2022-11-29T00:24:50.989Z,60.46
2022-11-29T00:25:50.807Z,66.24
2022-11-29T00:26:50.865Z,63.17
2022-11-29T00:27:50.769Z,71.12
2022-11-29T00:28:50.773Z,67.93
2022-11-29T00:29:50.866Z,65.83
2022-11-29T00:30:50.933Z,71.11
2022-11-29T00:31:50.884Z,60.56
2022-11-29T00:32:50.758Z,64.69
2022-11-29T00:33:50.774Z,61.05
2022-11-29T00:34:51.421Z,69.65
2022-11-29T00:35:50.795Z,54.58
2022-11-29T00:36:51.558Z,65.05
2022-11-29T00:37:50.665Z,64.96
2022-11-29T00:38:51.595Z,69.62
2022-11-29T00:39:50.742Z,61.08
2022-11-29T00:40:50.630Z,61.83
2022-11-29T00:41:50.615Z,62.35
2022-11-29T00:42:50.734Z,69.72
2022-11-29T00:43:50.614Z,66.67
2022-11-29T00:44:50.835Z,69.28
2022-11-29T00:45:50.727Z,69.83
2022-11-29T00:46:50.554Z,69.95
2022-11-29T00:47:50.626Z,68.59
2022-11-29T00:48:50.587Z,72.32
2022-11-29T00:49:51.671Z,62.90
2022-11-29T00:50:50.730Z,68.22
2022-11-29T00:51:50.494Z,55.30
2022-11-29T00:52:50.571Z,71.20
2022-11-29T00:53:50.541Z,63.22
2022-11-29T00:54:50.546Z,58.44
2022-11-29T00:55:50.540Z,70.73
2022-11-29T00:56:50.519Z,66.32
2022-11-29T00:57:50.486Z,60.40
2022-11-29T00:58:50.526Z,69.79
2022-11-29T00:59:50.552Z,69.09
2022-11-29T01:00:50.482Z,65.38
2022-11-29T01:01:50.412Z,64.40
2022-11-29T01:02:50.511Z,55.33
2022-11-29T01:03:51.034Z,65.76
2022-11-29T01:04:50.495Z,70.48
2022-11-29T01:05:50.384Z,68.70
2022-11-29T01:06:50.344Z,70.83
2022-11-29T01:07:50.489Z,59.18
2022-11-29T01:08:50.408Z,55.89
2022-11-29T01:09:50.356Z,65.48
2022-11-29T01:10:50.413Z,61.35
2022-11-29T01:11:50.396Z,64.91
2022-11-29T01:12:50.285Z,69.56
2022-11-29T01:13:50.467Z,59.13
2022-11-29T01:14:50.355Z,71.92
2022-11-29T01:15:50.293Z,66.38
2022-11-29T01:16:56.979Z,67.09
2022-11-29T01:17:50.352Z,66.51
2022-11-29T01:18:50.243Z,63.68
2022-11-29T01:19:51.114Z,68.65
2022-11-29T01:20:51.997Z,66.68
2022-11-29T01:21:51.250Z,65.54
2022-11-29T01:22:50.264Z,59.96
2022-11-29T01:23:50.804Z,69.76
2022-11-29T01:24:50.248Z,63.87
2022-11-29T01:25:50.973Z,55.01
2022-11-29T01:26:50.108Z,61.19
2022-11-29T01:27:50.150Z,58.54
2022-11-29T01:28:50.220Z,62.80
2022-11-29T01:29:50.125Z,68.37
2022-11-29T01:30:50.377Z,68.17
2022-11-29T01:31:50.147Z,65.20
2022-11-29T01:32:50.041Z,61.42
2022-11-29T01:33:50.162Z,67.89
2022-11-29T01:34:50.138Z,67.43
2022-11-29T01:35:50.106Z,66.91
2022-11-29T01:36:50.092Z,63.16
2022-11-29T01:37:50.016Z,66.80
2022-11-29T01:38:51.113Z,52.47
2022-11-29T01:39:50.153Z,63.59
2022-11-29T01:40:50.003Z,66.90
2022-11-29T01:41:50.122Z,67.87
2022-11-29T01:42:50.002Z,67.02
2022-11-29T01:43:50.002Z,72.84
2022-11-29T01:44:50.045Z,61.92
2022-11-29T01:45:50.055Z,65.46
2022-11-29T01:46:49.999Z,70.69
2022-11-29T01:47:49.934Z,63.33
2022-11-29T01:48:49.922Z,63.73
2022-11-29T01:49:49.979Z,67.22
2022-11-29T01:50:49.855Z,68.43
2022-11-29T01:51:49.878Z,66.88
2022-11-29T01:52:49.861Z,55.27
2022-11-29T01:53:49.902Z,67.05
2022-11-29T01:54:51.372Z,66.69
2022-11-29T01:55:49.969Z,72.09
2022-11-29T01:56:49.762Z,68.50
2022-11-29T01:57:49.826Z,53.47
2022-11-29T01:58:49.830Z,66.18
2022-11-29T01:59:49.841Z,69.95
2022-11-29T02:00:49.810Z,53.30
2022-11-29T02:01:50.447Z,71.33
2022-11-29T02:02:49.744Z,68.77
2022-11-29T02:03:49.720Z,60.92
2022-11-29T02:04:49.666Z,63.39
2022-11-29T02:05:49.675Z,66.39
2022-11-29T02:06:50.715Z,68.14
2022-11-29T02:07:49.807Z,60.32
2022-11-29T02:08:49.630Z,66.52
2022-11-29T02:09:49.621Z,60.42
2022-11-29T02:10:49.678Z,69.58
2022-11-29T02:11:49.687Z,71.12
2022-11-29T02:12:49.574Z,69.72
2022-11-29T02:13:49.657Z,66.75
2022-11-29T02:14:49.559Z,72.57
2022-11-29T02:15:49.678Z,60.86
2022-11-29T02:16:55.014Z,64.20
2022-11-29T02:17:51.538Z,70.35
2022-11-29T02:18:49.611Z,60.22
2022-11-29T02:19:49.583Z,67.68
2022-11-29T02:20:49.570Z,66.13
2022-11-29T02:21:49.584Z,62.84
2022-11-29T02:22:49.458Z,69.49
2022-11-29T02:23:49.649Z,73.56
2022-11-29T02:24:49.585Z,70.74
2022-11-29T02:25:49.497Z,61.04
2022-11-29T02:26:49.451Z,63.76
2022-11-29T02:27:49.467Z,55.84
2022-11-29T02:28:49.525Z,65.37
2022-11-29T02:29:49.457Z,72.36
2022-11-29T02:30:49.414Z,67.59
2022-11-29T02:31:49.386Z,61.80
2022-11-29T02:32:49.462Z,53.09
2022-11-29T02:33:49.586Z,73.09
2022-11-29T02:34:49.377Z,61.63
2022-11-29T02:35:49.338Z,62.35
2022-11-29T02:36:49.434Z,59.56
2022-11-29T02:37:49.318Z,71.53
2022-11-29T02:38:49.386Z,58.55
2022-11-29T02:39:49.362Z,68.14
2022-11-29T02:40:49.258Z,63.22
2022-11-29T02:41:49.375Z,69.85
2022-11-29T02:42:54.409Z,68.44
2022-11-29T02:43:51.378Z,68.17
2022-11-29T02:44:49.354Z,68.36
2022-11-29T02:45:49.360Z,70.57
2022-11-29T02:46:49.243Z,69.38
2022-11-29T02:47:49.191Z,69.32
2022-11-29T02:48:49.223Z,62.65
2022-11-29T02:49:49.296Z,70.49
2022-11-29T02:50:49.199Z,60.17
2022-11-29T02:51:49.135Z,66.17
2022-11-29T02:52:49.387Z,64.45
2022-11-29T02:53:49.219Z,66.41
2022-11-29T02:54:49.283Z,61.28
2022-11-29T02:55:49.195Z,71.49
2022-11-29T02:56:49.072Z,65.03
2022-11-29T02:57:49.172Z,74.21
2022-11-29T02:58:49.075Z,67.55
2022-11-29T02:59:49.046Z,68.53
2022-11-29T03:00:49.019Z,65.82
2022-11-29T03:01:49.139Z,68.55
2022-11-29T03:02:49.140Z,61.43
2022-11-29T03:03:49.144Z,57.41
2022-11-29T03:04:49.199Z,58.93
2022-11-29T03:05:49.046Z,58.74
2022-11-29T03:06:48.994Z,70.47
2022-11-29T03:07:49.056Z,72.39
2022-11-29T03:08:49.909Z,63.21
2022-11-29T03:09:49.143Z,70.95
2022-11-29T03:10:49.480Z,64.68
2022-11-29T03:11:48.996Z,72.85
2022-11-29T03:12:48.975Z,63.63
2022-11-29T03:13:48.952Z,59.21
2022-11-29T03:14:48.963Z,60.70
2022-11-29T03:15:48.967Z,68.67
2022-11-29T03:16:48.908Z,72.87
2022-11-29T03:17:49.836Z,68.74
2022-11-29T03:18:48.892Z,68.68
2022-11-29T03:19:48.815Z,66.93
2022-11-29T03:20:48.855Z,74.00
2022-11-29T03:21:48.807Z,68.28
2022-11-29T03:22:48.790Z,67.69
2022-11-29T03:23:48.823Z,68.86
2022-11-29T03:24:48.838Z,65.48
2022-11-29T03:25:48.852Z,69.68
2022-11-29T03:26:48.837Z,64.92
2022-11-29T03:27:49.408Z,63.95
2022-11-29T03:28:48.781Z,68.54
2022-11-29T03:30:22.059Z,69.06
2022-11-29T03:30:58.911Z,69.93
2022-11-29T03:31:49.681Z,68.27
2022-11-29T03:32:48.721Z,72.80
2022-11-29T03:33:48.729Z,70.56
2022-11-29T03:34:51.834Z,69.78
2022-11-29T03:35:49.664Z,70.46
2022-11-29T03:36:48.693Z,68.06
2022-11-29T03:37:48.658Z,70.67
2022-11-29T03:38:49.513Z,73.18
2022-11-29T03:39:49.475Z,66.98
2022-11-29T03:40:49.702Z,68.36
2022-11-29T03:41:48.674Z,67.68
2022-11-29T03:42:48.577Z,67.94
2022-11-29T03:43:48.569Z,71.62
2022-11-29T03:44:48.601Z,70.19
2022-11-29T03:45:48.540Z,70.43
2022-11-29T03:46:48.542Z,69.28
2022-11-29T03:47:48.568Z,70.67
2022-11-29T03:48:48.507Z,67.02
2022-11-29T03:49:48.515Z,71.19
2022-11-29T03:50:48.490Z,71.63
2022-11-29T03:51:48.571Z,70.31
2022-11-29T03:52:48.567Z,71.27
2022-11-29T03:53:48.486Z,72.69
2022-11-29T03:54:48.421Z,73.03
2022-11-29T03:55:48.454Z,70.34
2022-11-29T03:56:48.442Z,71.50
2022-11-29T03:57:48.374Z,65.15
2022-11-29T03:58:49.083Z,71.91
2022-11-29T03:59:48.382Z,73.16
2022-11-29T04:00:48.402Z,70.61
2022-11-29T04:01:48.413Z,67.26
2022-11-29T04:02:48.427Z,70.31
2022-11-29T04:03:48.354Z,67.44
2022-11-29T04:04:48.408Z,69.26
2022-11-29T04:05:48.349Z,72.91
2022-11-29T04:06:48.343Z,70.12
2022-11-29T04:07:48.412Z,73.95
2022-11-29T04:08:48.307Z,70.28
2022-11-29T04:09:48.244Z,74.59
2022-11-29T04:10:48.290Z,72.48
2022-11-29T04:11:48.296Z,72.55
2022-11-29T04:12:48.274Z,74.05
2022-11-29T04:13:48.867Z,74.53
2022-11-29T04:14:48.240Z,68.73
2022-11-29T04:15:48.218Z,74.78
2022-11-29T04:16:48.199Z,74.11
2022-11-29T04:17:48.158Z,75.61
2022-11-29T04:18:48.207Z,75.67
2022-11-29T04:19:48.119Z,75.42
2022-11-29T04:20:48.603Z,74.00
2022-11-29T04:21:49.997Z,75.74
2022-11-29T04:22:48.138Z,74.33
2022-11-29T04:23:48.127Z,76.30
2022-11-29T04:24:48.127Z,74.36
2022-11-29T04:25:48.063Z,73.99
2022-11-29T04:26:48.112Z,72.56
2022-11-29T04:27:48.641Z,74.33
2022-11-29T04:28:48.057Z,72.76
2022-11-29T04:29:48.048Z,74.47
2022-11-29T04:30:49.147Z,74.26
2022-11-29T04:31:48.065Z,74.25
2022-11-29T04:32:48.009Z,74.37
2022-11-29T04:33:48.145Z,73.22
2022-11-29T04:34:48.041Z,73.10
2022-11-29T04:35:47.960Z,76.88
2022-11-29T04:36:47.955Z,76.70
2022-11-29T04:37:47.957Z,75.70
2022-11-29T04:38:47.939Z,75.88
2022-11-29T04:39:48.021Z,76.26
2022-11-29T04:40:47.880Z,77.80
2022-11-29T04:41:48.863Z,73.96
2022-11-29T04:42:47.864Z,75.42
2022-11-29T04:43:47.901Z,77.41
2022-11-29T04:44:47.910Z,75.55
2022-11-29T04:45:47.850Z,74.42
2022-11-29T04:46:47.855Z,78.52
2022-11-29T04:47:47.875Z,75.94
2022-11-29T04:48:47.813Z,75.84
2022-11-29T04:49:47.822Z,76.63
2022-11-29T04:50:47.824Z,75.73
2022-11-29T04:51:47.752Z,76.13
2022-11-29T04:52:47.755Z,77.09
2022-11-29T04:53:47.741Z,75.92
2022-11-29T04:54:47.800Z,76.40
2022-11-29T04:55:47.804Z,75.65
2022-11-29T04:56:47.697Z,76.78
2022-11-29T04:57:47.679Z,77.02
2022-11-29T04:58:47.702Z,77.54
2022-11-29T04:59:47.709Z,75.30
2022-11-29T05:00:47.721Z,76.31
2022-11-29T05:01:47.707Z,75.58
2022-11-29T05:02:47.681Z,76.81
2022-11-29T05:03:50.261Z,75.23
2022-11-29T05:04:48.602Z,72.72
2022-11-29T05:05:47.640Z,75.38
2022-11-29T05:07:21.455Z,76.03
2022-11-29T05:08:22.688Z,74.90
2022-11-29T05:08:47.816Z,76.81
2022-11-29T05:09:47.818Z,76.21
2022-11-29T05:10:47.785Z,76.18
2022-11-29T05:11:47.617Z,76.63
2022-11-29T05:12:47.554Z,77.33
2022-11-29T05:13:47.758Z,77.21
2022-11-29T05:14:47.711Z,76.89
2022-11-29T05:15:47.635Z,77.29
2022-11-29T05:16:47.558Z,77.34
2022-11-29T05:17:47.552Z,77.04
2022-11-29T05:18:47.521Z,76.67
2022-11-29T05:22:07.602Z,77.06
2022-11-29T05:23:07.553Z,77.66
2022-11-29T05:24:07.606Z,78.13
2022-11-29T05:25:07.621Z,78.51
2022-11-29T05:26:07.562Z,76.28
2022-11-29T05:27:07.542Z,76.72
2022-11-29T05:28:10.214Z,76.68
2022-11-29T05:29:09.519Z,78.54
2022-11-29T05:30:07.557Z,76.47
2022-11-29T05:31:07.593Z,75.13
2022-11-29T05:32:07.578Z,77.63
2022-11-29T05:33:07.478Z,78.73
2022-11-29T05:34:07.454Z,78.66
2022-11-29T05:35:07.422Z,78.12
2022-11-29T05:36:07.421Z,78.72
2022-11-29T05:37:07.434Z,77.44
2022-11-29T05:38:07.386Z,78.04
2022-11-29T05:39:07.393Z,78.30
2022-11-29T05:40:07.376Z,78.81
2022-11-29T05:41:07.356Z,78.36
2022-11-29T05:42:07.362Z,79.04
2022-11-29T05:43:07.356Z,76.17
2022-11-29T05:44:07.316Z,79.20
2022-11-29T05:45:07.351Z,79.50
2022-11-29T05:46:07.329Z,78.09
2022-11-29T05:47:07.304Z,79.25
2022-11-29T05:48:07.327Z,76.15
2022-11-29T05:49:07.265Z,77.08
2022-11-29T05:50:07.321Z,78.58
2022-11-29T05:51:07.248Z,78.45
2022-11-29T05:52:07.281Z,78.58
2022-11-29T05:53:07.248Z,77.49
2022-11-29T05:54:07.304Z,77.14
2022-11-29T05:55:07.218Z,77.18
2022-11-29T05:56:07.301Z,75.51
2022-11-29T05:57:07.204Z,77.35
2022-11-29T05:58:07.150Z,77.58
2022-11-29T05:59:07.130Z,76.50
2022-11-29T06:00:07.226Z,78.96
2022-11-29T06:01:07.133Z,75.64
2022-11-29T06:02:07.170Z,76.17
2022-11-29T06:03:07.194Z,76.55
2022-11-29T06:04:13.199Z,76.95
2022-11-29T06:05:08.112Z,77.19
2022-11-29T06:06:07.131Z,76.19
2022-11-29T06:07:07.261Z,77.36
2022-11-29T06:08:07.073Z,77.77
2022-11-29T06:09:07.053Z,76.60
2022-11-29T06:10:07.010Z,77.19
2022-11-29T06:11:07.029Z,77.70
2022-11-29T06:12:07.024Z,76.10
2022-11-29T06:13:07.018Z,76.81
2022-11-29T06:14:06.974Z,77.50
2022-11-29T06:15:06.959Z,77.16
2022-11-29T06:16:07.234Z,78.04
2022-11-29T06:17:06.941Z,78.09
2022-11-29T06:18:06.920Z,77.64
2022-11-29T06:19:06.915Z,77.22
2022-11-29T06:20:06.906Z,77.62
2022-11-29T06:21:06.931Z,76.25
2022-11-29T06:22:06.927Z,77.50
2022-11-29T06:23:06.879Z,77.85
2022-11-29T06:24:06.895Z,77.56
2022-11-29T06:25:07.679Z,76.91
2022-11-29T06:26:06.878Z,77.63
2022-11-29T06:27:06.831Z,77.44
2022-11-29T06:28:06.823Z,77.39
2022-11-29T06:29:06.829Z,77.39
2022-11-29T06:30:06.888Z,78.20
2022-11-29T06:31:07.779Z,78.63
2022-11-29T06:32:06.766Z,77.77
2022-11-29T06:33:06.867Z,78.39
2022-11-29T06:34:06.754Z,78.17
2022-11-29T06:35:06.744Z,76.91
2022-11-29T06:36:06.762Z,78.65
2022-11-29T06:37:06.742Z,77.55
2022-11-29T06:38:06.726Z,77.27
2022-11-29T06:39:06.686Z,78.21
2022-11-29T06:40:06.680Z,77.13
2022-11-29T06:41:06.710Z,76.11
2022-11-29T06:42:06.707Z,76.37
2022-11-29T06:43:06.678Z,77.44
2022-11-29T06:44:06.606Z,78.06
2022-11-29T06:45:06.678Z,76.70
2022-11-29T06:46:06.616Z,78.25
2022-11-29T06:47:07.543Z,77.87
2022-11-29T06:48:07.210Z,78.68
2022-11-29T06:49:06.667Z,77.33
2022-11-29T06:50:08.147Z,77.10
2022-11-29T06:51:06.535Z,76.35
2022-11-29T06:52:06.517Z,79.26
2022-11-29T06:53:06.548Z,75.76
2022-11-29T06:54:06.500Z,78.39
2022-11-29T06:55:06.561Z,77.17
2022-11-29T06:56:06.587Z,77.15
2022-11-29T06:57:06.496Z,78.98
2022-11-29T06:58:06.447Z,78.02
2022-11-29T06:59:06.500Z,73.58
2022-11-29T07:00:07.126Z,77.25
2022-11-29T07:01:06.501Z,76.10
2022-11-29T07:02:07.189Z,75.96
2022-11-29T07:03:06.557Z,78.20
2022-11-29T07:04:06.389Z,76.24
2022-11-29T07:05:06.541Z,76.04
2022-11-29T07:06:06.392Z,75.65
2022-11-29T07:07:06.377Z,76.67
2022-11-29T07:08:07.099Z,77.03
2022-11-29T07:09:07.184Z,77.01
2022-11-29T07:10:10.608Z,76.84
2022-11-29T07:11:07.324Z,77.85
2022-11-29T07:12:06.316Z,76.93
2022-11-29T07:13:06.395Z,77.50
2022-11-29T07:14:06.300Z,78.44
2022-11-29T07:15:06.293Z,77.50
2022-11-29T07:16:06.361Z,76.62
2022-11-29T07:17:06.336Z,75.79
2022-11-29T07:18:06.277Z,76.61
2022-11-29T07:19:06.325Z,77.23
2022-11-29T07:20:07.173Z,76.99
2022-11-29T07:21:06.236Z,77.28
2022-11-29T07:22:06.956Z,77.99
2022-11-29T07:23:06.236Z,75.78
2022-11-29T07:24:06.218Z,76.21
2022-11-29T07:25:06.160Z,76.89
2022-11-29T07:26:07.214Z,76.92
2022-11-29T07:27:06.309Z,77.64
2022-11-29T07:28:06.159Z,76.16
2022-11-29T07:29:07.185Z,75.36
2022-11-29T07:30:06.097Z,75.55
2022-11-29T07:31:06.160Z,76.90
2022-11-29T07:32:06.221Z,74.69
2022-11-29T07:33:06.054Z,76.21
2022-11-29T07:34:06.078Z,76.25
2022-11-29T07:35:06.053Z,77.25
2022-11-29T07:36:06.060Z,75.47
2022-11-29T07:37:06.042Z,75.80
2022-11-29T07:38:06.077Z,76.88
2022-11-29T07:39:06.066Z,76.14
2022-11-29T07:40:06.048Z,75.71
2022-11-29T07:41:05.977Z,74.45
2022-11-29T07:42:06.086Z,76.28
2022-11-29T07:43:05.981Z,74.32
2022-11-29T07:44:05.937Z,75.71
2022-11-29T07:45:05.942Z,77.07
2022-11-29T07:46:06.754Z,76.26
2022-11-29T07:47:06.069Z,77.11
2022-11-29T07:48:05.882Z,77.58
2022-11-29T07:49:05.875Z,75.26
2022-11-29T07:50:05.907Z,74.78
2022-11-29T07:51:05.920Z,76.86
2022-11-29T07:52:05.917Z,75.80
2022-11-29T07:53:06.646Z,78.15
2022-11-29T07:54:05.820Z,75.65
2022-11-29T07:55:05.818Z,75.34
2022-11-29T07:56:05.871Z,74.42
2022-11-29T07:57:06.968Z,77.38
2022-11-29T07:58:05.799Z,73.70
2022-11-29T07:59:05.856Z,75.40
2022-11-29T08:00:05.779Z,77.11
2022-11-29T08:01:05.840Z,77.39
2022-11-29T08:02:11.455Z,75.72
2022-11-29T08:03:07.724Z,73.44
2022-11-29T08:04:05.731Z,74.97
2022-11-29T08:05:05.759Z,76.44
2022-11-29T08:06:05.688Z,74.76
2022-11-29T08:07:05.703Z,74.07
2022-11-29T08:08:05.672Z,75.75
2022-11-29T08:09:05.676Z,78.32
2022-11-29T08:10:05.676Z,75.01
2022-11-29T08:11:06.563Z,77.05
2022-11-29T08:12:06.656Z,76.05
2022-11-29T08:13:05.668Z,77.36
2022-11-29T08:14:06.534Z,78.57
2022-11-29T08:15:05.752Z,77.80
2022-11-29T08:16:05.708Z,76.43
2022-11-29T08:17:05.555Z,76.46
2022-11-29T08:18:05.548Z,75.22
2022-11-29T08:19:05.583Z,75.01
2022-11-29T08:20:05.600Z,76.67
2022-11-29T08:21:05.576Z,76.28
2022-11-29T08:22:05.524Z,77.31
2022-11-29T08:23:05.520Z,77.50
2022-11-29T08:24:05.552Z,76.93
2022-11-29T08:25:05.481Z,76.24
2022-11-29T08:26:05.461Z,75.49
2022-11-29T08:27:06.220Z,76.68
2022-11-29T08:28:05.545Z,75.60
2022-11-29T08:29:05.511Z,75.60
2022-11-29T08:30:05.480Z,77.53
2022-11-29T08:31:05.438Z,74.77
2022-11-29T08:32:05.533Z,76.24
2022-11-29T08:33:06.109Z,78.96
2022-11-29T08:34:05.463Z,76.62
2022-11-29T08:35:05.366Z,76.25
2022-11-29T08:36:05.342Z,76.40
2022-11-29T08:37:05.377Z,76.93
2022-11-29T08:38:05.321Z,76.33
2022-11-29T08:39:09.354Z,75.82
2022-11-29T08:40:06.105Z,76.85
2022-11-29T08:41:05.301Z,72.80
2022-11-29T08:42:05.341Z,76.82
2022-11-29T08:43:05.310Z,76.73
2022-11-29T08:44:05.265Z,75.15
2022-11-29T08:45:05.326Z,76.98
2022-11-29T08:46:05.317Z,77.46
2022-11-29T08:47:07.209Z,75.74
2022-11-29T08:48:05.210Z,73.65
2022-11-29T08:49:05.251Z,74.41
2022-11-29T08:50:05.266Z,75.27
2022-11-29T08:51:05.299Z,74.63
2022-11-29T08:52:05.157Z,73.58
2022-11-29T08:53:05.164Z,76.40
2022-11-29T08:54:05.137Z,76.09
2022-11-29T08:55:05.166Z,76.32
2022-11-29T08:56:23.522Z,75.43
2022-11-29T08:58:07.667Z,75.74
2022-11-29T08:59:05.127Z,76.50
2022-11-29T09:00:05.130Z,76.12
2022-11-29T09:01:05.145Z,73.34
2022-11-29T09:02:05.101Z,76.58
2022-11-29T09:03:05.623Z,75.45
2022-11-29T09:04:05.036Z,75.13
2022-11-29T09:05:05.047Z,76.42
2022-11-29T09:06:09.011Z,76.72
2022-11-29T09:07:07.010Z,76.45
2022-11-29T09:08:04.995Z,74.24
2022-11-29T09:09:04.964Z,77.00
2022-11-29T09:10:05.022Z,76.23
2022-11-29T09:11:06.603Z,74.27
2022-11-29T09:12:05.014Z,77.10
2022-11-29T09:13:04.996Z,75.59
2022-11-29T09:14:04.947Z,75.03
2022-11-29T09:15:05.023Z,74.58
2022-11-29T09:16:05.514Z,73.17
2022-11-29T09:17:04.950Z,76.33
2022-11-29T09:18:05.891Z,76.76
2022-11-29T09:19:04.881Z,75.80
2022-11-29T09:20:04.955Z,74.11
2022-11-29T09:21:04.920Z,75.88
2022-11-29T09:22:06.252Z,78.26
2022-11-29T09:23:04.823Z,79.37
2022-11-29T09:24:04.899Z,79.41
2022-11-29T09:25:05.635Z,76.16
2022-11-29T09:26:04.860Z,75.81
2022-11-29T09:27:04.892Z,77.11
2022-11-29T09:28:04.883Z,76.20
2022-11-29T09:29:04.839Z,74.33
2022-11-29T09:30:04.740Z,77.83
2022-11-29T09:31:05.545Z,74.88
2022-11-29T09:32:04.758Z,75.79
2022-11-29T09:33:04.856Z,75.23
2022-11-29T09:34:05.714Z,77.04
2022-11-29T09:35:04.723Z,77.14
2022-11-29T09:36:04.760Z,75.35
2022-11-29T09:37:04.714Z,75.37
2022-11-29T09:38:04.724Z,78.14
2022-11-29T09:39:04.636Z,75.61
2022-11-29T09:40:04.777Z,75.89
2022-11-29T09:41:04.667Z,76.07
2022-11-29T09:42:04.639Z,76.97
2022-11-29T09:43:04.686Z,76.83
2022-11-29T09:44:04.683Z,75.47
2022-11-29T09:45:04.664Z,76.01
2022-11-29T09:46:04.723Z,75.57
2022-11-29T09:47:04.547Z,75.98
2022-11-29T09:48:04.563Z,75.94
2022-11-29T09:49:04.549Z,76.18
2022-11-29T09:50:04.683Z,76.43
2022-11-29T09:51:04.586Z,74.22
2022-11-29T09:52:04.560Z,75.50
2022-11-29T09:53:04.489Z,74.68
2022-11-29T09:54:04.469Z,73.21
2022-11-29T09:55:04.550Z,73.92
2022-11-29T09:56:04.473Z,76.14
2022-11-29T09:57:10.203Z,76.73
2022-11-29T09:58:07.104Z,73.86
2022-11-29T09:59:04.440Z,76.66
2022-11-29T10:00:04.433Z,76.98
2022-11-29T10:01:04.460Z,77.27
2022-11-29T10:02:04.475Z,76.15
2022-11-29T10:03:04.440Z,74.71
2022-11-29T10:04:04.372Z,78.64
2022-11-29T10:05:04.396Z,76.93
2022-11-29T10:06:04.420Z,73.18
2022-11-29T10:07:04.382Z,74.37
2022-11-29T10:08:05.045Z,75.77
2022-11-29T10:09:04.316Z,74.38
2022-11-29T10:10:04.417Z,78.00
2022-11-29T10:11:04.317Z,78.91
2022-11-29T10:12:04.300Z,76.75
2022-11-29T10:13:04.425Z,76.56
2022-11-29T10:14:04.247Z,76.33
2022-11-29T10:15:04.400Z,75.67
2022-11-29T10:16:04.313Z,75.92
2022-11-29T10:17:04.564Z,77.07
2022-11-29T10:18:04.242Z,76.44
2022-11-29T10:19:04.285Z,77.17
2022-11-29T10:20:04.981Z,76.00
2022-11-29T10:21:04.249Z,76.47
2022-11-29T10:22:04.290Z,76.93
2022-11-29T10:23:04.254Z,73.44
2022-11-29T10:24:04.146Z,77.05
2022-11-29T10:25:04.158Z,76.57
2022-11-29T10:26:04.333Z,77.73
2022-11-29T10:27:04.107Z,75.65
2022-11-29T10:28:04.101Z,74.23
2022-11-29T10:29:04.231Z,73.81
2022-11-29T10:30:04.211Z,75.08
2022-11-29T10:31:04.285Z,76.26
2022-11-29T10:32:08.792Z,77.13
2022-11-29T10:33:05.043Z,76.64
2022-11-29T10:34:04.155Z,76.98
2022-11-29T10:35:05.161Z,77.26
2022-11-29T10:36:04.022Z,76.64
2022-11-29T10:37:04.106Z,74.75
2022-11-29T10:38:29.713Z,76.71
2022-11-29T10:39:10.029Z,76.29
2022-11-29T10:40:05.003Z,76.71
2022-11-29T10:41:04.082Z,75.80
2022-11-29T10:42:03.950Z,77.60
2022-11-29T10:43:04.002Z,76.98
2022-11-29T10:44:04.598Z,74.75
2022-11-29T10:45:03.900Z,73.28
2022-11-29T10:46:04.684Z,76.44
2022-11-29T10:47:09.268Z,74.81
2022-11-29T10:48:05.943Z,74.49
2022-11-29T10:49:06.486Z,75.63
2022-11-29T10:50:03.863Z,75.20
2022-11-29T10:51:04.639Z,72.83
2022-11-29T10:52:03.842Z,75.56
2022-11-29T10:53:04.526Z,73.84
2022-11-29T10:54:03.846Z,74.55
2022-11-29T10:55:03.864Z,73.64
2022-11-29T10:56:04.696Z,72.63
2022-11-29T10:57:03.794Z,72.35
2022-11-29T10:58:04.778Z,74.17
2022-11-29T10:59:03.818Z,72.22
2022-11-29T11:00:03.786Z,73.93
2022-11-29T11:01:03.811Z,73.26
2022-11-29T11:02:03.783Z,76.49
2022-11-29T11:03:05.667Z,74.02
2022-11-29T11:04:03.731Z,72.65
2022-11-29T11:05:03.707Z,74.04
2022-11-29T11:06:03.743Z,76.86
2022-11-29T11:07:03.747Z,74.69
2022-11-29T11:08:03.664Z,76.70
2022-11-29T11:09:03.663Z,73.75
2022-11-29T11:10:05.702Z,75.37
2022-11-29T11:11:03.612Z,75.58
2022-11-29T11:12:03.661Z,74.84
2022-11-29T11:13:04.509Z,72.07
2022-11-29T11:14:03.616Z,75.79
2022-11-29T11:15:03.596Z,75.35
2022-11-29T11:16:03.587Z,75.08
2022-11-29T11:17:03.605Z,74.33
2022-11-29T11:18:04.512Z,74.77
2022-11-29T11:19:03.557Z,75.76
2022-11-29T11:20:03.532Z,76.25
2022-11-29T11:21:03.537Z,74.64
2022-11-29T11:22:03.597Z,74.14
2022-11-29T11:23:03.531Z,75.87
2022-11-29T11:24:03.609Z,76.29
2022-11-29T11:25:03.476Z,73.95
2022-11-29T11:26:03.482Z,77.06
2022-11-29T11:27:03.469Z,76.44
2022-11-29T11:28:03.441Z,76.90
2022-11-29T11:29:04.465Z,76.24
2022-11-29T11:30:03.484Z,75.35
2022-11-29T11:31:03.532Z,74.47
2022-11-29T11:32:05.138Z,76.27
2022-11-29T11:33:04.090Z,75.58
2022-11-29T11:34:03.393Z,74.73
2022-11-29T11:35:04.025Z,76.96
2022-11-29T11:36:03.413Z,75.74
2022-11-29T11:37:03.344Z,75.15
2022-11-29T11:38:03.499Z,75.31
2022-11-29T11:39:03.382Z,74.26
2022-11-29T11:40:05.071Z,75.47
2022-11-29T11:41:03.567Z,75.51
2022-11-29T11:42:03.638Z,74.00
2022-11-29T11:43:04.975Z,75.44
2022-11-29T11:44:07.145Z,77.87
2022-11-29T11:45:05.245Z,77.28
2022-11-29T11:46:06.762Z,78.46
2022-11-29T11:47:03.241Z,76.76
2022-11-29T11:48:04.084Z,75.60
2022-11-29T11:49:04.058Z,73.44
2022-11-29T11:50:03.194Z,72.22
2022-11-29T11:51:03.201Z,74.99
2022-11-29T11:52:03.169Z,76.74
2022-11-29T11:53:03.205Z,75.71
2022-11-29T11:54:03.142Z,72.96
2022-11-29T11:55:03.157Z,78.35
2022-11-29T11:56:03.174Z,74.94
2022-11-29T11:57:03.156Z,76.04
2022-11-29T11:58:09.364Z,74.47
2022-11-29T11:59:05.094Z,75.58
2022-11-29T12:00:06.912Z,75.44
2022-11-29T12:01:05.222Z,76.35
2022-11-29T12:02:05.142Z,75.91
2022-11-29T12:03:04.047Z,74.99
2022-11-29T12:04:03.087Z,75.89
2022-11-29T12:05:03.036Z,75.47
2022-11-29T12:06:03.024Z,76.28
2022-11-29T12:07:03.043Z,76.15
2022-11-29T12:08:08.075Z,76.89
2022-11-29T12:09:06.491Z,77.18
2022-11-29T12:10:02.994Z,77.05
2022-11-29T12:11:07.212Z,75.00
2022-11-29T12:12:03.959Z,77.17
2022-11-29T12:13:03.580Z,75.32
2022-11-29T12:14:02.937Z,76.64
2022-11-29T12:15:02.966Z,77.55
2022-11-29T12:16:03.048Z,76.72
2022-11-29T12:17:02.918Z,76.39
2022-11-29T12:18:02.916Z,73.87
2022-11-29T12:19:04.496Z,77.29
2022-11-29T12:20:03.149Z,77.16
2022-11-29T12:21:02.864Z,76.85
2022-11-29T12:22:02.847Z,75.90
2022-11-29T12:23:03.713Z,75.98
2022-11-29T12:24:02.819Z,76.27
2022-11-29T12:25:02.828Z,77.40
2022-11-29T12:26:03.651Z,76.69
2022-11-29T12:27:02.860Z,76.88
2022-11-29T12:28:03.673Z,75.73
2022-11-29T12:29:04.628Z,76.96
2022-11-29T12:30:03.658Z,75.61
2022-11-29T12:31:02.827Z,78.67
2022-11-29T12:32:03.726Z,77.23
2022-11-29T12:33:02.786Z,74.39
2022-11-29T12:34:02.828Z,76.08
2022-11-29T12:35:02.740Z,76.50
2022-11-29T12:36:02.708Z,77.70
2022-11-29T12:37:02.757Z,78.36
2022-11-29T12:38:35.112Z,78.20
2022-11-29T12:39:02.661Z,77.82
2022-11-29T12:40:02.658Z,77.97
2022-11-29T12:41:03.123Z,78.50
2022-11-29T12:42:03.170Z,74.90
2022-11-29T12:43:03.368Z,76.55
2022-11-29T12:44:04.618Z,78.62
2022-11-29T12:45:02.590Z,76.20
2022-11-29T12:46:02.651Z,77.53
2022-11-29T12:48:04.591Z,77.56
2022-11-29T12:49:02.547Z,76.40
2022-11-29T12:50:03.567Z,77.97
2022-11-29T12:51:02.585Z,77.67
2022-11-29T12:52:02.998Z,77.99
2022-11-29T12:53:02.547Z,78.75
2022-11-29T12:54:02.500Z,77.81
2022-11-29T12:55:02.507Z,77.51
2022-11-29T12:56:02.530Z,77.68
2022-11-29T12:57:02.462Z,78.36